Time,TemperatureF,DewpointF,PressureIn,WindDirection,WindDirectionDegrees,WindSpeedMPH,WindSpeedGustMPH,Humidity,HourlyPrecipIn,Conditions,Clouds,dailyrainin,SoftwareType,DateUTC
2013-02-06 00:00:00,34.5,27.4,30.10,East,89,0.0,0.0,75,0.00,,,0.00,Wunderground v.1.15,2013-02-06 06:00:00,
2013-02-06 00:20:00,33.9,27.1,30.11,East,89,0.0,0.0,76,0.00,,,0.00,Wunderground v.1.15,2013-02-06 06:20:00,
2013-02-06 00:25:00,33.8,27.0,30.11,East,89,0.0,0.0,76,0.00,,,0.00,Wunderground v.1.15,2013-02-06 06:25:00,
2013-02-06 00:30:00,33.7,26.9,30.11,East,89,0.0,0.0,76,0.00,,,0.00,Wunderground v.1.15,2013-02-06 06:30:00,
2013-02-06 00:40:00,32.9,26.5,30.11,SSE,149,0.0,0.0,77,0.00,,,0.00,Wunderground v.1.15,2013-02-06 06:40:00,
2013-02-06 00:45:00,32.4,26.3,30.10,SE,130,0.0,0.0,78,0.00,,,0.00,Wunderground v.1.15,2013-02-06 06:45:00,
2013-02-06 00:55:00,32.6,26.8,30.11,SE,132,0.0,0.0,79,0.00,,,0.00,Wunderground v.1.15,2013-02-06 06:55:00,
2013-02-06 01:00:00,32.6,26.8,30.11,SE,132,0.0,0.0,79,0.00,,,0.00,Wunderground v.1.15,2013-02-06 07:00:00,
2013-02-06 01:15:00,32.9,26.8,30.11,SE,125,0.0,0.0,78,0.00,,,0.00,Wunderground v.1.15,2013-02-06 07:15:00,
2013-02-06 01:25:00,32.9,27.1,30.11,ESE,103,0.0,0.0,79,0.00,,,0.00,Wunderground v.1.15,2013-02-06 07:25:00,
2013-02-06 01:30:00,32.9,27.1,30.10,ESE,103,0.0,0.0,79,0.00,,,0.00,Wunderground v.1.15,2013-02-06 07:30:00,
2013-02-06 01:40:00,32.8,27.0,30.09,East,94,0.0,0.0,79,0.00,,,0.00,Wunderground v.1.15,2013-02-06 07:40:00,
2013-02-06 01:50:00,33.1,27.3,30.09,East,82,0.0,0.0,79,0.00,,,0.00,Wunderground v.1.15,2013-02-06 07:50:00,
2013-02-06 02:00:00,33.2,27.4,30.09,East,84,0.0,0.0,79,0.00,,,0.00,Wunderground v.1.15,2013-02-06 08:00:00,
2013-02-06 02:05:00,33.4,27.3,30.10,East,85,0.0,0.0,78,0.00,,,0.00,Wunderground v.1.15,2013-02-06 08:05:00,
2013-02-06 02:15:00,33.6,27.5,30.09,East,85,0.0,0.0,78,0.00,,,0.00,Wunderground v.1.15,2013-02-06 08:15:00,
2013-02-06 02:20:00,33.7,27.3,30.09,East,84,0.0,0.0,77,0.00,,,0.00,Wunderground v.1.15,2013-02-06 08:20:00,
2013-02-06 02:26:00,33.6,27.2,30.09,East,84,0.0,0.0,77,0.00,,,0.00,Wunderground v.1.15,2013-02-06 08:26:00,
2013-02-06 02:35:00,33.3,27.2,30.09,East,83,0.0,0.0,78,0.00,,,0.00,Wunderground v.1.15,2013-02-06 08:35:00,
2013-02-06 02:45:00,33.2,27.1,30.08,East,87,0.0,1.0,78,0.00,,,0.00,Wunderground v.1.15,2013-02-06 08:45:00,
2013-02-06 02:55:00,33.3,27.2,30.08,ESE,107,1.0,1.0,78,0.00,,,0.00,Wunderground v.1.15,2013-02-06 08:55:00,
2013-02-06 03:00:00,33.2,27.1,30.08,East,96,0.0,0.0,78,0.00,,,0.00,Wunderground v.1.15,2013-02-06 09:00:00,
2013-02-06 03:10:00,33.0,27.2,30.08,East,100,0.0,1.0,79,0.00,,,0.00,Wunderground v.1.15,2013-02-06 09:10:00,
2013-02-06 03:15:00,32.9,27.1,30.08,East,86,0.0,1.0,79,0.00,,,0.00,Wunderground v.1.15,2013-02-06 09:15:00,
2013-02-06 03:25:00,32.8,27.0,30.07,East,79,0.0,1.0,79,0.00,,,0.00,Wunderground v.1.15,2013-02-06 09:25:00,
2013-02-06 03:30:00,32.9,27.1,30.07,ESE,117,0.0,1.0,79,0.00,,,0.00,Wunderground v.1.15,2013-02-06 09:30:00,
2013-02-06 03:35:00,32.9,27.1,30.06,SSE,148,0.0,1.0,79,0.00,,,0.00,Wunderground v.1.15,2013-02-06 09:35:00,
2013-02-06 03:45:00,33.0,27.2,30.06,SE,125,0.0,0.0,79,0.00,,,0.00,Wunderground v.1.15,2013-02-06 09:45:00,
2013-02-06 03:51:00,33.0,27.2,30.06,SE,132,0.0,0.0,79,0.00,,,0.00,Wunderground v.1.15,2013-02-06 09:51:00,
2013-02-06 04:00:00,33.1,27.3,30.06,SSE,165,1.0,1.0,79,0.00,,,0.00,Wunderground v.1.15,2013-02-06 10:00:00,
2013-02-06 04:10:00,33.0,27.5,30.06,SE,132,1.0,1.0,80,0.00,,,0.00,Wunderground v.1.15,2013-02-06 10:10:00,
2013-02-06 04:20:00,32.9,27.4,30.06,SE,141,0.0,0.0,80,0.00,,,0.00,Wunderground v.1.15,2013-02-06 10:20:00,
2013-02-06 04:25:00,32.9,27.4,30.05,SE,143,0.0,0.0,80,0.00,,,0.00,Wunderground v.1.15,2013-02-06 10:25:00,
2013-02-06 04:35:00,32.8,27.3,30.05,SSE,162,0.0,0.0,80,0.00,,,0.00,Wunderground v.1.15,2013-02-06 10:35:00,
2013-02-06 04:40:00,32.7,27.2,30.05,SE,128,0.0,0.0,80,0.00,,,0.00,Wunderground v.1.15,2013-02-06 10:40:00,
2013-02-06 04:45:00,32.7,27.2,30.05,ESE,113,0.0,0.0,80,0.00,,,0.00,Wunderground v.1.15,2013-02-06 10:45:00,
2013-02-06 05:00:00,32.6,27.4,30.05,ESE,121,0.0,0.0,81,0.00,,,0.00,Wunderground v.1.15,2013-02-06 11:00:00,
2013-02-06 05:10:00,32.5,27.3,30.05,SSW,194,0.0,2.0,81,0.00,,,0.00,Wunderground v.1.15,2013-02-06 11:10:00,
2013-02-06 05:15:00,32.4,27.2,30.05,SSE,149,0.0,2.0,81,0.00,,,0.00,Wunderground v.1.15,2013-02-06 11:15:00,
2013-02-06 05:20:00,32.3,27.1,30.05,ESE,108,0.0,0.0,81,0.00,,,0.00,Wunderground v.1.15,2013-02-06 11:20:00,
2013-02-06 05:30:00,32.3,27.4,30.04,SE,134,0.0,1.0,82,0.00,,,0.00,Wunderground v.1.15,2013-02-06 11:30:00,
2013-02-06 05:40:00,32.4,27.2,30.04,ESE,123,1.0,1.0,81,0.00,,,0.00,Wunderground v.1.15,2013-02-06 11:40:00,
2013-02-06 05:45:00,32.5,27.3,30.04,SE,145,1.0,1.0,81,0.00,,,0.00,Wunderground v.1.15,2013-02-06 11:45:00,
2013-02-06 05:55:00,32.5,27.3,30.04,SE,138,1.0,2.0,81,0.00,,,0.00,Wunderground v.1.15,2013-02-06 11:55:00,
2013-02-06 06:05:00,32.3,27.1,30.04,SE,131,1.0,1.0,81,0.00,,,0.00,Wunderground v.1.15,2013-02-06 12:05:00,
2013-02-06 06:10:00,32.1,27.2,30.04,SE,135,1.0,1.0,82,0.00,,,0.00,Wunderground v.1.15,2013-02-06 12:10:00,
2013-02-06 06:20:00,31.8,27.2,30.05,SE,135,1.0,1.0,83,0.00,,,0.00,Wunderground v.1.15,2013-02-06 12:20:00,
2013-02-06 06:30:00,31.6,27.0,30.04,SE,133,1.0,1.0,83,0.00,,,0.00,Wunderground v.1.15,2013-02-06 12:30:00,
2013-02-06 06:40:00,31.7,27.1,30.04,ESE,110,1.0,1.0,83,0.00,,,0.00,Wunderground v.1.15,2013-02-06 12:40:00,
2013-02-06 06:45:00,31.7,27.1,30.04,SSW,195,1.0,1.0,83,0.00,,,0.00,Wunderground v.1.15,2013-02-06 12:45:00,
2013-02-06 06:55:00,31.7,27.1,30.03,SE,127,1.0,1.0,83,0.00,,,0.00,Wunderground v.1.15,2013-02-06 12:55:00,
2013-02-06 07:00:00,31.7,27.1,30.03,SE,145,1.0,2.0,83,0.00,,,0.00,Wunderground v.1.15,2013-02-06 13:00:00,
2013-02-06 07:10:00,32.0,27.4,30.03,East,99,1.0,1.0,83,0.00,,,0.00,Wunderground v.1.15,2013-02-06 13:10:00,
2013-02-06 07:15:00,32.3,27.7,30.02,SE,145,2.0,2.0,83,0.00,,,0.00,Wunderground v.1.15,2013-02-06 13:15:00,
2013-02-06 07:25:00,32.5,27.6,30.02,South,179,2.0,2.0,82,0.00,,,0.00,Wunderground v.1.15,2013-02-06 13:25:00,
2013-02-06 07:35:00,32.4,27.5,30.02,SSE,149,2.0,3.0,82,0.00,,,0.00,Wunderground v.1.15,2013-02-06 13:35:00,
2013-02-06 07:40:00,32.5,27.6,30.02,SSE,148,2.0,3.0,82,0.00,,,0.00,Wunderground v.1.15,2013-02-06 13:40:00,
2013-02-06 07:45:00,32.5,27.6,30.02,SSE,165,2.0,6.0,82,0.00,,,0.00,Wunderground v.1.15,2013-02-06 13:45:00,
2013-02-06 07:55:00,32.8,27.9,30.03,SE,138,3.0,3.0,82,0.00,,,0.00,Wunderground v.1.15,2013-02-06 13:55:00,
2013-02-06 08:00:00,32.9,28.0,30.02,SE,139,2.0,2.0,82,0.00,,,0.00,Wunderground v.1.15,2013-02-06 14:00:00,
2013-02-06 08:10:00,33.3,28.4,30.02,SE,131,3.0,4.0,82,0.00,,,0.00,Wunderground v.1.15,2013-02-06 14:10:00,
2013-02-06 08:20:00,33.8,28.6,30.02,SE,125,3.0,5.0,81,0.00,,,0.00,Wunderground v.1.15,2013-02-06 14:20:00,
2013-02-06 08:30:00,34.4,28.9,30.02,South,177,4.0,5.0,80,0.00,,,0.00,Wunderground v.1.15,2013-02-06 14:30:00,
2013-02-06 08:35:00,34.6,28.8,30.02,SSE,162,4.0,5.0,79,0.00,,,0.00,Wunderground v.1.15,2013-02-06 14:35:00,
2013-02-06 08:56:00,35.4,29.5,30.03,South,181,3.0,6.0,79,0.00,,,0.00,Wunderground v.1.15,2013-02-06 14:56:00,
2013-02-06 09:05:00,35.7,29.5,30.02,SW,229,4.0,4.0,78,0.00,,,0.00,Wunderground v.1.15,2013-02-06 15:05:00,
2013-02-06 09:15:00,36.1,29.6,30.02,SSE,163,4.0,4.0,77,0.00,,,0.00,Wunderground v.1.15,2013-02-06 15:15:00,
2013-02-06 09:25:00,37.3,30.1,30.02,South,179,3.0,3.0,75,0.00,,,0.00,Wunderground v.1.15,2013-02-06 15:25:00,
2013-02-06 09:30:00,37.9,30.4,30.02,SSE,150,3.0,4.0,74,0.00,,,0.00,Wunderground v.1.15,2013-02-06 15:30:00,
2013-02-06 09:40:00,38.6,30.4,30.02,South,170,3.0,6.0,72,0.00,,,0.00,Wunderground v.1.15,2013-02-06 15:40:00,
2013-02-06 09:45:00,39.0,30.7,30.02,SSE,158,4.0,6.0,72,0.00,,,0.00,Wunderground v.1.15,2013-02-06 15:45:00,
2013-02-06 09:50:00,39.5,30.9,30.02,SSE,150,4.0,4.0,71,0.00,,,0.00,Wunderground v.1.15,2013-02-06 15:50:00,
2013-02-06 10:01:00,40.1,30.4,30.02,SE,139,4.0,4.0,68,0.00,,,0.00,Wunderground v.1.15,2013-02-06 16:01:00,
2013-02-06 10:15:00,40.5,30.8,30.01,South,190,4.0,4.0,68,0.00,,,0.00,Wunderground v.1.15,2013-02-06 16:15:00,
2013-02-06 10:20:00,40.6,31.2,30.01,South,174,4.0,5.0,69,0.00,,,0.00,Wunderground v.1.15,2013-02-06 16:20:00,
2013-02-06 10:31:00,41.0,31.2,30.01,South,174,4.0,6.0,68,0.00,,,0.00,Wunderground v.1.15,2013-02-06 16:31:00,
2013-02-06 10:56:00,41.1,31.3,30.00,SE,132,4.0,4.0,68,0.00,,,0.00,Wunderground v.1.15,2013-02-06 16:56:00,
2013-02-06 11:05:00,41.1,31.7,29.99,SSE,159,4.0,4.0,69,0.00,,,0.00,Wunderground v.1.15,2013-02-06 17:05:00,
2013-02-06 11:20:00,41.3,32.2,29.99,ESE,110,3.0,3.0,70,0.00,,,0.00,Wunderground v.1.15,2013-02-06 17:20:00,
2013-02-06 11:25:00,41.6,32.5,29.99,SE,144,3.0,3.0,70,0.00,,,0.00,Wunderground v.1.15,2013-02-06 17:25:00,
2013-02-06 11:31:00,42.0,32.6,29.99,South,177,3.0,4.0,69,0.00,,,0.00,Wunderground v.1.15,2013-02-06 17:31:00,
2013-02-06 11:40:00,43.2,33.3,29.99,SSE,167,4.0,4.0,68,0.00,,,0.00,Wunderground v.1.15,2013-02-06 17:40:00,
2013-02-06 11:50:00,43.9,33.6,29.99,SSE,154,3.0,3.0,67,0.00,,,0.00,Wunderground v.1.15,2013-02-06 17:50:00,
2013-02-06 11:55:00,44.1,33.8,29.99,SSE,153,3.0,3.0,67,0.00,,,0.00,Wunderground v.1.15,2013-02-06 17:55:00,
2013-02-06 12:06:00,44.3,34.0,29.98,SE,139,2.0,4.0,67,0.00,,,0.00,Wunderground v.1.15,2013-02-06 18:06:00,
2013-02-06 12:15:00,44.7,34.0,29.98,SSW,193,2.0,2.0,66,0.00,,,0.00,Wunderground v.1.15,2013-02-06 18:15:00,
2013-02-06 12:20:00,44.9,34.6,29.97,South,169,2.0,2.0,67,0.00,,,0.00,Wunderground v.1.15,2013-02-06 18:20:00,
2013-02-06 12:36:00,45.9,34.4,29.96,SSW,204,3.0,7.0,64,0.00,,,0.00,Wunderground v.1.15,2013-02-06 18:36:00,
2013-02-06 12:55:00,46.2,34.3,29.95,SE,134,3.0,3.0,63,0.00,,,0.00,Wunderground v.1.15,2013-02-06 18:55:00,
2013-02-06 13:00:00,46.2,34.7,29.95,SE,131,2.0,2.0,64,0.00,,,0.00,Wunderground v.1.15,2013-02-06 19:00:00,
2013-02-06 13:15:00,46.3,34.8,29.94,South,190,2.0,2.0,64,0.00,,,0.00,Wunderground v.1.15,2013-02-06 19:15:00,
2013-02-06 13:31:00,47.0,35.8,29.93,East,96,2.0,2.0,65,0.00,,,0.00,Wunderground v.1.15,2013-02-06 19:31:00,
2013-02-06 13:40:00,47.4,36.2,29.93,SE,136,2.0,2.0,65,0.00,,,0.00,Wunderground v.1.15,2013-02-06 19:40:00,
2013-02-06 13:50:00,47.9,35.9,29.92,SSE,152,3.0,3.0,63,0.00,,,0.00,Wunderground v.1.15,2013-02-06 19:50:00,
2013-02-06 13:55:00,48.1,36.1,29.92,SSE,156,3.0,3.0,63,0.00,,,0.00,Wunderground v.1.15,2013-02-06 19:55:00,
2013-02-06 14:05:00,48.2,36.2,29.91,SE,146,2.0,2.0,63,0.00,,,0.00,Wunderground v.1.15,2013-02-06 20:05:00,
2013-02-06 14:10:00,48.4,36.8,29.91,East,96,2.0,2.0,64,0.00,,,0.00,Wunderground v.1.15,2013-02-06 20:10:00,
2013-02-06 14:20:00,48.7,37.1,29.91,SE,146,1.0,2.0,64,0.00,,,0.00,Wunderground v.1.15,2013-02-06 20:20:00,
2013-02-06 14:30:00,48.8,37.2,29.90,SE,142,1.0,2.0,64,0.00,,,0.00,Wunderground v.1.15,2013-02-06 20:30:00,
2013-02-06 14:40:00,48.9,36.9,29.89,SE,143,2.0,2.0,63,0.00,,,0.00,Wunderground v.1.15,2013-02-06 20:40:00,
2013-02-06 14:46:00,49.1,37.0,29.89,SE,134,2.0,4.0,63,0.00,,,0.00,Wunderground v.1.15,2013-02-06 20:46:00,
2013-02-06 15:01:00,49.4,37.7,29.89,SE,144,0.0,0.0,64,0.00,,,0.00,Wunderground v.1.15,2013-02-06 21:01:00,
2013-02-06 15:10:00,49.7,38.4,29.88,ESE,105,0.0,0.0,65,0.00,,,0.00,Wunderground v.1.15,2013-02-06 21:10:00,
2013-02-06 15:16:00,50.1,38.4,29.88,East,93,0.0,0.0,64,0.00,,,0.00,Wunderground v.1.15,2013-02-06 21:16:00,
2013-02-06 15:25:00,51.0,38.4,29.88,East,91,0.0,1.0,62,0.00,,,0.00,Wunderground v.1.15,2013-02-06 21:25:00,
2013-02-06 15:35:00,51.6,39.0,29.88,East,100,0.0,0.0,62,0.00,,,0.00,Wunderground v.1.15,2013-02-06 21:35:00,
2013-02-06 15:45:00,51.9,38.9,29.88,SE,124,0.0,0.0,61,0.00,,,0.00,Wunderground v.1.15,2013-02-06 21:45:00,
2013-02-06 15:50:00,52.1,38.6,29.88,SE,145,0.0,1.0,60,0.00,,,0.00,Wunderground v.1.15,2013-02-06 21:50:00,
2013-02-06 16:00:00,52.3,38.8,29.87,East,91,0.0,1.0,60,0.00,,,0.00,Wunderground v.1.15,2013-02-06 22:00:00,
2013-02-06 16:05:00,52.1,39.1,29.87,East,86,0.0,1.0,61,0.00,,,0.00,Wunderground v.1.15,2013-02-06 22:05:00,
2013-02-06 16:10:00,52.0,38.5,29.87,SSE,158,0.0,4.0,60,0.00,,,0.00,Wunderground v.1.15,2013-02-06 22:10:00,
2013-02-06 16:20:00,51.8,38.8,29.87,SE,138,1.0,1.0,61,0.00,,,0.00,Wunderground v.1.15,2013-02-06 22:20:00,
2013-02-06 16:25:00,51.6,38.2,29.87,ESE,117,1.0,1.0,60,0.00,,,0.00,Wunderground v.1.15,2013-02-06 22:25:00,
2013-02-06 16:40:00,51.0,37.2,29.87,East,80,1.0,1.0,59,0.00,,,0.00,Wunderground v.1.15,2013-02-06 22:40:00,
2013-02-06 16:46:00,51.0,37.6,29.87,ESE,107,0.0,1.0,60,0.00,,,0.00,Wunderground v.1.15,2013-02-06 22:46:00,
2013-02-06 16:55:00,51.4,37.5,29.87,SE,129,0.0,1.0,59,0.00,,,0.00,Wunderground v.1.15,2013-02-06 22:55:00,
2013-02-06 17:05:00,51.5,37.6,29.86,SE,129,0.0,0.0,59,0.00,,,0.00,Wunderground v.1.15,2013-02-06 23:05:00,
2013-02-06 17:10:00,51.5,37.6,29.86,ESE,122,0.0,1.0,59,0.00,,,0.00,Wunderground v.1.15,2013-02-06 23:10:00,
2013-02-06 17:25:00,50.8,37.4,29.86,SE,133,0.0,0.0,60,0.00,,,0.00,Wunderground v.1.15,2013-02-06 23:25:00,
2013-02-06 17:31:00,50.4,37.0,29.86,East,100,0.0,0.0,60,0.00,,,0.00,Wunderground v.1.15,2013-02-06 23:31:00,
2013-02-06 17:40:00,49.8,37.3,29.86,ENE,73,0.0,0.0,62,0.00,,,0.00,Wunderground v.1.15,2013-02-06 23:40:00,
2013-02-06 17:50:00,49.3,37.6,29.86,East,100,0.0,1.0,64,0.00,,,0.00,Wunderground v.1.15,2013-02-06 23:50:00,
2013-02-06 17:55:00,49.2,37.5,29.86,East,81,0.0,0.0,64,0.00,,,0.00,Wunderground v.1.15,2013-02-06 23:55:00,
2013-02-06 18:15:00,48.6,37.4,29.86,East,96,0.0,0.0,65,0.00,,,0.00,Wunderground v.1.15,2013-02-07 00:15:00,
2013-02-06 18:20:00,48.4,37.2,29.86,East,101,0.0,0.0,65,0.00,,,0.00,Wunderground v.1.15,2013-02-07 00:20:00,
2013-02-06 18:25:00,48.1,37.3,29.86,East,98,0.0,0.0,66,0.00,,,0.00,Wunderground v.1.15,2013-02-07 00:25:00,
2013-02-06 18:35:00,47.7,36.9,29.87,East,90,0.0,0.0,66,0.00,,,0.00,Wunderground v.1.15,2013-02-07 00:35:00,
2013-02-06 18:40:00,47.4,37.0,29.87,East,90,0.0,0.0,67,0.00,,,0.00,Wunderground v.1.15,2013-02-07 00:40:00,
2013-02-06 18:50:00,46.9,36.9,29.87,SE,124,0.0,0.0,68,0.00,,,0.00,Wunderground v.1.15,2013-02-07 00:50:00,
2013-02-06 18:55:00,46.8,36.8,29.87,ESE,106,0.0,0.0,68,0.00,,,0.00,Wunderground v.1.15,2013-02-07 00:55:00,
2013-02-06 19:01:00,46.8,36.8,29.87,ESE,106,0.0,0.0,68,0.00,,,0.00,Wunderground v.1.15,2013-02-07 01:01:00,
2013-02-06 19:10:00,46.6,36.6,29.87,East,93,0.0,0.0,68,0.00,,,0.00,Wunderground v.1.15,2013-02-07 01:10:00,
2013-02-06 19:20:00,46.0,36.0,29.88,East,94,0.0,0.0,68,0.00,,,0.00,Wunderground v.1.15,2013-02-07 01:20:00,
2013-02-06 19:35:00,44.6,35.8,29.88,East,94,0.0,0.0,71,0.00,,,0.00,Wunderground v.1.15,2013-02-07 01:35:00,
2013-02-06 19:40:00,44.4,35.9,29.88,East,94,0.0,0.0,72,0.00,,,0.00,Wunderground v.1.15,2013-02-07 01:40:00,
2013-02-06 19:55:00,44.5,36.4,29.89,East,94,0.0,0.0,73,0.00,,,0.00,Wunderground v.1.15,2013-02-07 01:55:00,
2013-02-06 20:10:00,44.5,36.0,29.89,East,94,0.0,0.0,72,0.00,,,0.00,Wunderground v.1.15,2013-02-07 02:10:00,
2013-02-06 20:20:00,44.6,36.5,29.89,East,93,0.0,0.0,73,0.00,,,0.00,Wunderground v.1.15,2013-02-07 02:20:00,
2013-02-06 20:25:00,44.7,36.2,29.89,East,94,0.0,0.0,72,0.00,,,0.00,Wunderground v.1.15,2013-02-07 02:25:00,
2013-02-06 20:35:00,45.2,36.7,29.89,East,94,0.0,0.0,72,0.00,,,0.00,Wunderground v.1.15,2013-02-07 02:35:00,
2013-02-06 20:40:00,45.5,36.6,29.89,East,94,0.0,0.0,71,0.00,,,0.00,Wunderground v.1.15,2013-02-07 02:40:00,
2013-02-06 20:50:00,45.5,36.3,29.89,East,94,0.0,0.0,70,0.00,,,0.00,Wunderground v.1.15,2013-02-07 02:50:00,
2013-02-06 21:05:00,46.0,36.8,29.88,East,94,0.0,0.0,70,0.00,,,0.00,Wunderground v.1.15,2013-02-07 03:05:00,
2013-02-06 21:10:00,46.0,36.8,29.89,East,94,0.0,0.0,70,0.00,,,0.00,Wunderground v.1.15,2013-02-07 03:10:00,
2013-02-06 21:40:00,44.9,36.4,29.90,East,93,0.0,0.0,72,0.00,,,0.00,Wunderground v.1.15,2013-02-07 03:40:00,
2013-02-06 21:45:00,44.4,36.6,29.90,East,94,0.0,0.0,74,0.00,,,0.00,Wunderground v.1.15,2013-02-07 03:45:00,
2013-02-06 21:55:00,44.0,36.2,29.89,East,81,1.0,1.0,74,0.00,,,0.00,Wunderground v.1.15,2013-02-07 03:55:00,
2013-02-06 22:01:00,44.2,36.8,29.89,East,81,0.0,0.0,75,0.00,,,0.00,Wunderground v.1.15,2013-02-07 04:01:00,
2013-02-06 22:10:00,43.7,36.0,29.89,East,81,0.0,0.0,74,0.00,,,0.00,Wunderground v.1.15,2013-02-07 04:10:00,
2013-02-06 22:20:00,43.3,35.9,29.89,East,81,0.0,0.0,75,0.00,,,0.00,Wunderground v.1.15,2013-02-07 04:20:00,
2013-02-06 22:25:00,43.2,36.1,29.89,East,81,0.0,0.0,76,0.00,,,0.00,Wunderground v.1.15,2013-02-07 04:25:00,
2013-02-06 22:40:00,42.7,36.0,29.89,ENE,78,0.0,0.0,77,0.00,,,0.00,Wunderground v.1.15,2013-02-07 04:40:00,
2013-02-06 22:46:00,43.0,36.0,29.89,ENE,78,0.0,0.0,76,0.00,,,0.00,Wunderground v.1.15,2013-02-07 04:46:00,
2013-02-06 22:55:00,43.2,36.1,29.89,ENE,77,0.0,0.0,76,0.00,,,0.00,Wunderground v.1.15,2013-02-07 04:55:00,
2013-02-06 23:05:00,43.0,36.0,29.89,East,85,1.0,1.0,76,0.00,,,0.00,Wunderground v.1.15,2013-02-07 05:05:00,
2013-02-06 23:10:00,42.8,36.1,29.89,East,84,1.0,1.0,77,0.00,,,0.00,Wunderground v.1.15,2013-02-07 05:10:00,
2013-02-06 23:15:00,42.7,35.7,29.89,East,84,0.0,0.0,76,0.00,,,0.00,Wunderground v.1.15,2013-02-07 05:15:00,
2013-02-06 23:20:00,42.6,36.2,29.89,East,84,0.0,0.0,78,0.00,,,0.00,Wunderground v.1.15,2013-02-07 05:20:00,
2013-02-06 23:35:00,43.3,35.9,29.90,East,84,0.0,0.0,75,0.00,,,0.00,Wunderground v.1.15,2013-02-07 05:35:00,
2013-02-06 23:41:00,43.1,36.4,29.90,East,84,0.0,0.0,77,0.00,,,0.00,Wunderground v.1.15,2013-02-07 05:41:00,
2013-02-06 23:50:00,43.7,37.0,29.89,East,85,0.0,0.0,77,0.00,,,0.00,Wunderground v.1.15,2013-02-07 05:50:00,
2013-02-06 23:55:00,43.9,36.8,29.89,East,84,0.0,0.0,76,0.00,,,0.00,Wunderground v.1.15,2013-02-07 05:55:00,